Time;durP1;ratioP1;P1;durP2;ratioP2;P2;SDS_P1;SDS_P2;PMS_P1;PMS_P2;Temp;Humidity;BMP_temperature;BMP_pressure;BME280_temperature;BME280_humidity;BME280_pressure;Samples;Min_cycle;Max_cycle;Signal;HPM_P1;HPM_P2
2023/12/07 00:00:18;;;;;;;44.17;26.17;;;;;;;5.07;100.00;62519.75;5024768;28;20198;-74
2023/12/07 00:02:45;;;;;;;54.65;29.63;;;;;;;5.13;100.00;62523.38;5025783;28;20245;-71
2023/12/07 00:05:12;;;;;;;54.92;28.30;;;;;;;5.13;100.00;62526.44;5012114;28;20502;-71
2023/12/07 00:07:40;;;;;;;49.35;27.75;;;;;;;5.08;100.00;62518.25;5024875;28;20236;-72
2023/12/07 00:10:08;;;;;;;52.13;27.67;;;;;;;4.98;100.00;62507.94;5025155;28;20224;-71
2023/12/07 00:12:35;;;;;;;52.47;26.88;;;;;;;5.07;100.00;62515.22;5024631;28;20243;-70
2023/12/07 00:15:02;;;;;;;59.67;29.00;;;;;;;4.87;100.00;62497.13;5022612;28;20209;-72
2023/12/07 00:17:29;;;;;;;61.25;29.65;;;;;;;4.69;100.00;62478.63;5025148;28;20414;-73
2023/12/07 00:19:56;;;;;;;61.33;30.67;;;;;;;4.64;100.00;62470.94;5010432;28;20209;-71
2023/12/07 00:22:24;;;;;;;62.80;29.35;;;;;;;4.58;100.00;62467.28;5013607;28;20231;-72
2023/12/07 00:24:53;;;;;;;68.35;30.20;;;;;;;4.56;100.00;62465.75;5023426;28;20484;-72
2023/12/07 00:27:19;;;;;;;60.30;30.35;;;;;;;4.64;100.00;62473.47;5025241;28;20231;-71
2023/12/07 00:29:46;;;;;;;60.53;29.17;;;;;;;4.67;100.00;62484.63;5024788;28;20345;-71
2023/12/07 00:32:13;;;;;;;56.20;29.35;;;;;;;4.63;100.00;62472.94;5020788;28;20254;-72
2023/12/07 00:34:40;;;;;;;57.55;27.55;;;;;;;4.74;100.00;62481.22;5024902;28;20248;-71
2023/12/07 00:37:07;;;;;;;59.85;28.38;;;;;;;4.78;100.00;62487.34;5024631;28;20523;-71
2023/12/07 00:39:34;;;;;;;57.17;30.60;;;;;;;4.92;100.00;62504.81;5024684;28;20513;-72
2023/12/07 00:42:03;;;;;;;61.60;29.20;;;;;;;5.00;100.00;62508.00;5016479;28;20242;-72
2023/12/07 00:44:29;;;;;;;60.20;29.90;;;;;;;4.93;100.00;62503.31;5013159;28;20245;-71
2023/12/07 00:46:56;;;;;;;58.72;30.33;;;;;;;4.88;100.00;62497.66;5025156;28;20236;-72
2023/12/07 00:49:23;;;;;;;60.90;29.80;;;;;;;4.88;100.00;62500.16;5019555;28;20215;-72
2023/12/07 00:51:50;;;;;;;60.85;28.20;;;;;;;4.85;100.00;62492.53;5016354;28;20291;-71
2023/12/07 00:54:17;;;;;;;53.00;29.25;;;;;;;4.78;100.00;62487.34;5023799;28;20437;-72
2023/12/07 00:56:44;;;;;;;59.75;28.73;;;;;;;4.66;100.00;62480.56;5025156;28;20230;-72
2023/12/07 00:59:12;;;;;;;54.85;27.63;;;;;;;4.76;100.00;62480.78;5016311;28;20213;-73
2023/12/07 01:01:40;;;;;;;53.30;27.67;;;;;;;4.84;100.00;62494.03;5006573;28;20310;-73
2023/12/07 01:04:06;;;;;;;50.08;27.38;;;;;;;4.72;100.00;62481.69;5014209;28;20203;-72
2023/12/07 01:06:33;;;;;;;52.38;26.27;;;;;;;4.67;100.00;62481.59;5023798;28;20504;-72
2023/12/07 01:09:00;;;;;;;56.10;27.73;;;;;;;4.71;100.00;62483.69;5022009;28;20203;-72
2023/12/07 01:11:27;;;;;;;46.78;25.00;;;;;;;4.67;100.00;62481.59;5024697;28;20399;-73
2023/12/07 01:13:54;;;;;;;48.28;24.98;;;;;;;4.64;100.00;62473.97;5007482;28;20211;-72
2023/12/07 01:16:24;;;;;;;47.38;24.17;;;;;;;4.64;100.00;62476.00;5006551;28;20258;-71
2023/12/07 01:18:51;;;;;;;44.40;24.25;;;;;;;4.64;100.00;62476.50;5012910;28;20246;-72
2023/12/07 01:21:18;;;;;;;44.47;22.42;;;;;;;4.67;100.00;62479.59;5007301;28;20230;-70
2023/12/07 01:23:45;;;;;;;45.35;23.42;;;;;;;4.68;100.00;62480.09;5023837;28;20278;-72
2023/12/07 01:26:12;;;;;;;33.92;19.30;;;;;;;4.77;100.00;62486.31;5021562;28;20261;-72
2023/12/07 01:28:39;;;;;;;35.70;19.95;;;;;;;4.73;100.00;62483.22;5024592;28;20614;-71
2023/12/07 01:31:05;;;;;;;44.67;22.42;;;;;;;4.68;100.00;62478.09;5017450;28;20222;-71
2023/12/07 01:33:34;;;;;;;38.15;20.95;;;;;;;4.69;100.00;62481.13;5024280;28;20285;-72
2023/12/07 01:36:00;;;;;;;44.47;21.85;;;;;;;4.78;100.00;62487.34;5020367;28;20273;-71
2023/12/07 01:38:27;;;;;;;36.88;20.80;;;;;;;4.77;100.00;62486.31;5024248;28;20254;-72
2023/12/07 01:40:54;;;;;;;43.25;21.45;;;;;;;4.77;100.00;62484.31;5010408;28;20206;-71
2023/12/07 01:43:23;;;;;;;44.63;23.00;;;;;;;4.78;100.00;62490.38;5014664;28;20240;-71
2023/12/07 01:45:53;;;;;;;39.95;23.55;;;;;;;4.83;100.00;62495.56;5023801;28;20206;-71
2023/12/07 01:48:20;;;;;;;38.35;21.52;;;;;;;4.91;100.00;62501.25;5022319;28;20234;-72
2023/12/07 01:50:49;;;;;;;43.90;22.90;;;;;;;4.94;100.00;62501.81;5020669;28;20214;-72
2023/12/07 01:53:17;;;;;;;39.13;20.75;;;;;;;4.94;100.00;62504.34;5021519;28;20230;-72
2023/12/07 01:55:44;;;;;;;31.25;19.90;;;;;;;5.11;100.00;62524.38;5023730;28;20210;-71
2023/12/07 01:58:12;;;;;;;30.88;18.88;;;;;;;5.01;100.00;62516.59;5021350;28;20222;-71
2023/12/07 02:00:39;;;;;;;34.50;20.80;;;;;;;4.90;100.00;62497.19;5021915;28;20203;-72
2023/12/07 02:03:06;;;;;;;31.17;19.27;;;;;;;4.87;100.00;62499.66;5021852;28;20242;-71
2023/12/07 02:05:34;;;;;;;37.35;21.77;;;;;;;4.90;100.00;62499.72;5023658;28;20211;-71
2023/12/07 02:08:02;;;;;;;35.13;21.77;;;;;;;4.97;100.00;62507.41;5014706;28;20286;-71
2023/12/07 02:10:30;;;;;;;44.05;23.90;;;;;;;5.01;100.00;62509.03;5020449;28;20472;-71
2023/12/07 02:12:57;;;;;;;39.92;23.95;;;;;;;4.98;100.00;62510.47;5019979;28;20443;-71
2023/12/07 02:15:23;;;;;;;45.03;25.55;;;;;;;5.08;100.00;62520.75;5003951;28;20257;-72
2023/12/07 02:17:59;;;;;;;54.35;24.98;;;;;;;5.12;100.00;62522.38;5011913;28;20229;-72
2023/12/07 02:20:30;;;;;;;46.55;26.13;;;;;;;5.18;100.00;62531.06;5020639;28;20201;-71
2023/12/07 02:23:01;;;;;;;34.90;22.33;;;;;;;5.18;100.00;62531.06;5023659;28;20245;-71
2023/12/07 02:25:35;;;;;;;43.50;22.88;;;;;;;5.14;100.00;62524.94;5023453;28;20206;-71
2023/12/07 02:28:04;;;;;;;37.13;20.80;;;;;;;5.15;100.00;62527.97;5021864;28;20409;-71
2023/12/07 02:30:31;;;;;;;38.75;20.63;;;;;;;5.17;100.00;62532.56;5023456;28;20225;-72
2023/12/07 02:32:58;;;;;;;34.28;19.38;;;;;;;5.25;100.00;62538.78;5027166;28;20306;-70
2023/12/07 02:35:26;;;;;;;35.63;21.52;;;;;;;5.28;100.00;62536.31;5024886;28;20509;-71
2023/12/07 02:37:54;;;;;;;38.15;22.73;;;;;;;5.06;100.00;62516.69;5025346;28;20285;-71
2023/12/07 02:40:24;;;;;;;37.83;22.08;;;;;;;4.89;100.00;62499.19;5027985;28;20213;-71
2023/12/07 02:42:52;;;;;;;34.80;21.35;;;;;;;4.88;100.00;62498.16;5022297;28;20235;-71
2023/12/07 02:45:20;;;;;;;36.10;21.58;;;;;;;4.78;100.00;62487.84;5018522;28;20241;-70
2023/12/07 02:47:48;;;;;;;33.30;20.13;;;;;;;4.91;100.00;62500.72;5025343;28;20226;-71
2023/12/07 02:50:15;;;;;;;31.48;18.73;;;;;;;4.96;100.00;62506.41;5027456;28;20370;-71
2023/12/07 02:52:42;;;;;;;30.90;17.85;;;;;;;5.01;100.00;62511.56;5024653;28;20525;-71
2023/12/07 02:55:09;;;;;;;26.88;16.75;;;;;;;4.85;100.00;62494.56;5019074;28;20202;-71
2023/12/07 02:57:36;;;;;;;26.75;16.85;;;;;;;4.88;100.00;62495.13;5024609;28;20218;-72
2023/12/07 03:00:06;;;;;;;25.63;16.45;;;;;;;4.86;100.00;62496.09;5027391;28;20238;-71
2023/12/07 03:02:34;;;;;;;25.08;16.08;;;;;;;4.94;100.00;62509.38;5020253;28;20487;-71
2023/12/07 03:05:01;;;;;;;24.35;15.55;;;;;;;4.97;100.00;62512.47;5022243;28;20207;-71
2023/12/07 03:07:28;;;;;;;25.23;15.18;;;;;;;5.02;100.00;62515.09;5020372;28;20519;-71
2023/12/07 03:09:55;;;;;;;23.00;15.35;;;;;;;4.96;100.00;62506.41;5026055;28;20208;-71
2023/12/07 03:12:22;;;;;;;25.92;14.77;;;;;;;5.05;100.00;62518.19;5017589;28;20219;-71
2023/12/07 03:14:49;;;;;;;26.38;15.10;;;;;;;5.06;100.00;62521.75;5026110;28;20210;-71
2023/12/07 03:17:16;;;;;;;31.60;18.27;;;;;;;5.07;100.00;62520.25;5026656;28;20226;-71
2023/12/07 03:19:45;;;;;;;32.35;19.80;;;;;;;5.14;100.00;62527.47;5013721;28;20476;-71
2023/12/07 03:22:13;;;;;;;30.80;18.27;;;;;;;5.09;100.00;62514.72;5020925;28;20230;-71
2023/12/07 03:24:46;;;;;;;41.45;21.85;;;;;;;4.93;100.00;62508.38;5025129;28;20262;-71
2023/12/07 03:27:13;;;;;;;44.88;22.75;;;;;;;4.87;100.00;62499.66;5017917;28;20222;-71
2023/12/07 03:29:40;;;;;;;42.22;23.25;;;;;;;4.95;100.00;62507.91;5022837;28;20199;-71
2023/12/07 03:32:08;;;;;;;36.20;22.85;;;;;;;5.01;100.00;62509.03;5017596;28;20229;-72
2023/12/07 03:34:35;;;;;;;40.97;24.13;;;;;;;4.94;100.00;62506.88;5026665;28;20214;-72
2023/12/07 03:37:04;;;;;;;43.75;23.77;;;;;;;5.03;100.00;62515.63;5026031;28;20445;-72
2023/12/07 03:39:32;;;;;;;41.30;23.80;;;;;;;5.10;100.00;62525.88;5024044;28;20202;-71
2023/12/07 03:41:59;;;;;;;47.03;24.42;;;;;;;5.11;100.00;62523.88;5018093;28;20243;-71
2023/12/07 03:44:26;;;;;;;43.45;24.13;;;;;;;5.21;100.00;62534.16;5020241;28;20404;-71
2023/12/07 03:46:53;;;;;;;44.35;24.98;;;;;;;5.25;100.00;62533.75;5025959;28;20234;-72
2023/12/07 03:49:20;;;;;;;46.30;25.08;;;;;;;5.24;100.00;62537.75;5016004;28;20286;-72
2023/12/07 03:51:47;;;;;;;48.70;25.55;;;;;;;5.22;100.00;62538.22;5025297;28;20305;-71
2023/12/07 03:54:15;;;;;;;46.50;24.83;;;;;;;5.25;100.00;62538.78;5024992;28;20217;-71
2023/12/07 03:56:42;;;;;;;49.17;25.00;;;;;;;5.26;100.00;62534.25;5006250;28;20227;-72
2023/12/07 03:59:08;;;;;;;48.75;26.13;;;;;;;5.07;100.00;62517.72;5016128;28;20230;-71
2023/12/07 04:01:35;;;;;;;44.53;25.67;;;;;;;4.90;100.00;62504.75;5025134;28;20198;-71
2023/12/07 04:04:02;;;;;;;46.25;25.77;;;;;;;4.90;100.00;62500.22;5024625;28;20213;-71
2023/12/07 04:06:29;;;;;;;49.22;26.67;;;;;;;4.90;100.00;62499.72;5022888;28;20214;-72
2023/12/07 04:08:56;;;;;;;51.72;24.90;;;;;;;4.91;100.00;62503.25;5021711;28;20389;-71
2023/12/07 04:11:25;;;;;;;48.38;25.60;;;;;;;5.02;100.00;62515.09;5025045;28;20202;-71
2023/12/07 04:13:50;;;;;;;54.83;27.23;;;;;;;4.93;100.00;62505.84;5019774;28;20217;-72
2023/12/07 04:16:18;;;;;;;51.60;26.98;;;;;;;4.89;100.00;62498.66;5018199;28;20481;-72
2023/12/07 04:18:44;;;;;;;50.15;26.38;;;;;;;4.78;100.00;62487.84;5018235;28;20507;-72
2023/12/07 04:21:11;;;;;;;46.33;26.48;;;;;;;4.95;100.00;62507.91;5013133;28;20211;-72
2023/12/07 04:23:39;;;;;;;52.50;27.42;;;;;;;4.87;100.00;62499.66;5020632;28;20999;-72
2023/12/07 04:26:06;;;;;;;50.08;26.20;;;;;;;4.93;100.00;62503.31;5022931;28;20285;-72
2023/12/07 04:28:35;;;;;;;50.92;27.20;;;;;;;5.10;100.00;62520.31;5025064;28;20227;-71
2023/12/07 04:31:01;;;;;;;52.22;26.48;;;;;;;5.10;100.00;62520.81;5016476;28;20202;-72
2023/12/07 04:33:29;;;;;;;47.80;25.35;;;;;;;5.18;100.00;62533.56;5025137;28;20226;-72
2023/12/07 04:35:56;;;;;;;45.83;25.40;;;;;;;5.21;100.00;62534.16;5024421;28;20232;-71
2023/12/07 04:38:23;;;;;;;46.30;27.60;;;;;;;5.05;100.00;62520.19;5019946;28;20250;-73
2023/12/07 04:40:50;;;;;;;42.03;25.42;;;;;;;4.73;100.00;62483.22;5017046;28;20207;-72
2023/12/07 04:43:17;;;;;;;47.20;26.63;;;;;;;4.57;100.00;62469.28;5008650;28;20235;-72
2023/12/07 04:45:45;;;;;;;47.53;26.38;;;;;;;4.56;100.00;62463.22;5011002;28;20334;-71
2023/12/07 04:48:12;;;;;;;44.60;26.33;;;;;;;4.61;100.00;62470.88;5017433;28;20231;-72
2023/12/07 04:50:39;;;;;;;45.10;25.42;;;;;;;4.69;100.00;62483.66;5024756;28;20224;-72
2023/12/07 04:53:06;;;;;;;39.30;23.38;;;;;;;4.83;100.00;62495.03;5023719;28;20227;-71
2023/12/07 04:55:33;;;;;;;41.10;22.90;;;;;;;4.89;100.00;62498.66;5019847;28;20205;-71
2023/12/07 04:58:00;;;;;;;42.03;23.42;;;;;;;5.00;100.00;62510.00;5010536;28;20286;-71
2023/12/07 05:00:27;;;;;;;42.72;23.65;;;;;;;4.85;100.00;62495.06;5022527;28;20265;-72
2023/12/07 05:02:56;;;;;;;38.92;21.63;;;;;;;4.79;100.00;62485.84;5020182;28;20259;-71
2023/12/07 05:05:24;;;;;;;41.22;22.33;;;;;;;4.82;100.00;62491.97;5024995;28;20213;-72
2023/12/07 05:07:51;;;;;;;37.30;23.27;;;;;;;4.93;100.00;62505.31;5020386;28;20237;-71
2023/12/07 05:10:18;;;;;;;39.88;22.40;;;;;;;5.03;100.00;62516.13;5024586;28;20210;-72
2023/12/07 05:12:45;;;;;;;42.50;23.08;;;;;;;5.12;100.00;62525.41;5021290;28;20257;-71
2023/12/07 05:15:12;;;;;;;43.33;22.58;;;;;;;5.15;100.00;62525.97;5024215;28;20221;-72
2023/12/07 05:17:39;;;;;;;40.00;22.08;;;;;;;5.19;100.00;62532.09;5020223;28;20282;-72
2023/12/07 05:20:09;;;;;;;40.80;23.90;;;;;;;5.25;100.00;62538.25;5023072;28;20633;-72
2023/12/07 05:22:36;;;;;;;36.13;22.30;;;;;;;4.94;100.00;62501.81;5018546;28;20622;-72
2023/12/07 05:25:04;;;;;;;42.50;23.45;;;;;;;4.46;100.00;62460.50;5021535;28;22543;-72
2023/12/07 05:27:31;;;;;;;37.88;22.25;;;;;;;4.53;100.00;62462.13;5020115;28;20218;-73
2023/12/07 05:29:58;;;;;;;36.90;20.92;;;;;;;4.45;100.00;62456.94;5012672;28;20253;-72
2023/12/07 05:32:25;;;;;;;33.20;20.30;;;;;;;4.41;100.00;62447.25;5023444;28;20519;-72
2023/12/07 05:34:52;;;;;;;37.22;21.73;;;;;;;4.40;100.00;62449.25;5024218;28;20207;-72
2023/12/07 05:37:20;;;;;;;36.90;22.60;;;;;;;4.51;100.00;62465.63;5023400;28;20593;-71
2023/12/07 05:39:47;;;;;;;37.42;22.20;;;;;;;4.62;100.00;62474.44;5019280;28;20205;-72
2023/12/07 05:42:14;;;;;;;35.10;21.55;;;;;;;4.64;100.00;62476.00;5022610;28;20257;-75
2023/12/07 05:44:41;;;;;;;37.25;21.42;;;;;;;4.75;100.00;62482.25;5023668;28;20210;-72
2023/12/07 05:47:09;;;;;;;34.72;20.73;;;;;;;4.87;100.00;62499.16;5009866;28;20219;-73
2023/12/07 05:49:35;;;;;;;33.55;20.25;;;;;;;4.91;100.00;62506.31;5021097;28;20210;-72
2023/12/07 05:52:03;;;;;;;33.75;19.80;;;;;;;4.97;100.00;62504.91;5024202;28;20248;-72
2023/12/07 05:54:31;;;;;;;33.47;20.50;;;;;;;5.02;100.00;62514.59;5022569;28;20209;-72
2023/12/07 05:56:58;;;;;;;33.38;19.27;;;;;;;4.93;100.00;62505.84;5020302;28;20223;-71
2023/12/07 05:59:26;;;;;;;32.15;20.55;;;;;;;5.03;100.00;62516.13;5016488;28;20207;-72
2023/12/07 06:01:53;;;;;;;35.28;21.90;;;;;;;5.06;100.00;62519.22;5006338;28;20219;-71
2023/12/07 06:04:20;;;;;;;36.03;22.58;;;;;;;4.97;100.00;62506.91;5022455;28;20261;-72
2023/12/07 06:06:47;;;;;;;38.15;22.00;;;;;;;4.97;100.00;62509.44;5021556;28;20524;-72
2023/12/07 06:09:14;;;;;;;37.05;22.02;;;;;;;4.82;100.00;62494.50;5010034;28;20209;-71
2023/12/07 06:11:42;;;;;;;37.28;23.25;;;;;;;4.74;100.00;62486.78;5023589;28;20235;-72
2023/12/07 06:14:09;;;;;;;42.10;22.98;;;;;;;4.85;100.00;62492.03;5017199;28;20203;-72
2023/12/07 06:16:36;;;;;;;37.25;22.25;;;;;;;4.85;100.00;62497.09;5014595;28;20374;-72
2023/12/07 06:19:03;;;;;;;37.00;23.60;;;;;;;5.03;100.00;62513.09;5019684;28;20199;-73
2023/12/07 06:21:31;;;;;;;39.15;22.92;;;;;;;5.13;100.00;62523.91;5023207;28;20230;-72
2023/12/07 06:23:58;;;;;;;34.17;22.92;;;;;;;5.22;100.00;62530.66;5020654;28;20222;-71
2023/12/07 06:26:26;;;;;;;39.10;22.77;;;;;;;5.26;100.00;62542.34;5014198;28;20482;-72
2023/12/07 06:28:54;;;;;;;35.67;22.50;;;;;;;5.31;100.00;62542.44;5021812;28;20213;-72
2023/12/07 06:31:21;;;;;;;35.33;21.13;;;;;;;5.43;100.00;62557.34;5023021;28;20217;-72
2023/12/07 06:33:48;;;;;;;32.90;19.73;;;;;;;5.56;100.00;62573.25;5020719;28;20213;-71
2023/12/07 06:36:19;;;;;;;36.60;21.42;;;;;;;5.59;100.00;62570.78;5020631;28;20205;-72
2023/12/07 06:38:46;;;;;;;29.27;17.50;;;;;;;5.58;100.00;62572.78;5021150;28;20206;-72
2023/12/07 06:41:13;;;;;;;28.52;17.52;;;;;;;5.58;100.00;62567.22;5023680;28;20364;-74
2023/12/07 06:43:40;;;;;;;29.90;17.45;;;;;;;5.53;100.00;62567.63;5017631;28;20238;-75
2023/12/07 06:46:09;;;;;;;25.65;18.33;;;;;;;5.59;100.00;62571.28;5019410;28;20262;-75
2023/12/07 06:48:36;;;;;;;27.60;18.77;;;;;;;5.56;100.00;62570.19;5018125;28;20239;-75
2023/12/07 06:51:02;;;;;;;31.92;20.90;;;;;;;5.62;100.00;62578.91;5021485;28;20241;-74
2023/12/07 06:53:31;;;;;;;30.70;19.25;;;;;;;5.62;100.00;62576.38;5019427;28;20251;-75
2023/12/07 06:55:58;;;;;;;28.40;18.58;;;;;;;5.69;100.00;62586.63;5017399;28;20225;-74
2023/12/07 06:58:25;;;;;;;26.95;18.23;;;;;;;5.65;100.00;62579.47;5012510;28;20219;-74
2023/12/07 07:00:52;;;;;;;36.25;21.17;;;;;;;5.60;100.00;62574.84;5020666;28;20507;-74
2023/12/07 07:03:20;;;;;;;32.97;21.67;;;;;;;5.60;100.00;62574.31;5017920;28;20246;-74
2023/12/07 07:05:47;;;;;;;36.28;20.25;;;;;;;5.70;100.00;62587.66;5014698;28;20551;-75
2023/12/07 07:08:14;;;;;;;33.58;19.85;;;;;;;5.83;100.00;62603.59;5014172;28;20225;-74
2023/12/07 07:10:41;;;;;;;33.28;20.33;;;;;;;5.88;100.00;62600.16;5018855;28;20215;-74
2023/12/07 07:13:08;;;;;;;35.65;21.52;;;;;;;6.01;100.00;62619.13;5018998;28;20215;-75
2023/12/07 07:15:35;;;;;;;31.55;21.80;;;;;;;5.84;100.00;62596.56;5012039;28;20432;-75
2023/12/07 07:18:02;;;;;;;34.15;21.38;;;;;;;5.69;100.00;62581.06;5023300;28;20223;-73
2023/12/07 07:20:30;;;;;;;33.95;22.05;;;;;;;5.29;100.00;62545.44;5021270;28;20199;-74
2023/12/07 07:22:57;;;;;;;35.88;20.70;;;;;;;5.36;100.00;62547.06;5014183;28;20239;-73
2023/12/07 07:25:24;;;;;;;30.63;18.83;;;;;;;5.10;100.00;62527.88;5020701;28;20209;-74
2023/12/07 07:27:52;;;;;;;27.98;19.27;;;;;;;5.11;100.00;62521.84;5024724;28;20238;-73
2023/12/07 07:30:18;;;;;;;25.95;16.85;;;;;;;5.03;100.00;62515.63;5025086;28;20199;-74
2023/12/07 07:32:45;;;;;;;29.23;17.10;;;;;;;4.95;100.00;62505.38;5019347;28;20222;-75
2023/12/07 07:35:13;;;;;;;28.55;18.60;;;;;;;4.98;100.00;62510.47;5021525;28;20266;-74
2023/12/07 07:37:42;;;;;;;27.13;17.75;;;;;;;5.17;100.00;62527.50;5023904;28;20238;-75
2023/12/07 07:40:11;;;;;;;29.88;17.58;;;;;;;5.34;100.00;62548.06;5023354;28;20202;-75
2023/12/07 07:42:39;;;;;;;30.58;17.42;;;;;;;5.47;100.00;62560.94;5018743;28;20228;-74
2023/12/07 07:45:07;;;;;;;30.13;16.40;;;;;;;5.55;100.00;62564.13;5025166;28;20273;-73
2023/12/07 07:47:34;;;;;;;26.63;16.13;;;;;;;5.43;100.00;62554.28;5023639;28;20219;-73
2023/12/07 07:50:05;;;;;;;25.25;15.95;;;;;;;5.46;100.00;62560.41;5010722;28;20207;-74
2023/12/07 07:52:33;;;;;;;26.40;16.42;;;;;;;5.56;100.00;62567.69;5023827;28;20610;-74
2023/12/07 07:55:02;;;;;;;27.50;16.98;;;;;;;5.63;100.00;62574.88;5024970;28;20210;-74
2023/12/07 07:57:30;;;;;;;27.15;15.88;;;;;;;5.66;100.00;62578.00;5025523;28;20242;-74
2023/12/07 07:59:57;;;;;;;24.63;15.48;;;;;;;5.64;100.00;62578.97;5018834;28;20241;-74
2023/12/07 08:02:24;;;;;;;25.25;15.15;;;;;;;5.64;100.00;62581.47;5019857;28;20225;-74
2023/12/07 08:04:51;;;;;;;30.17;16.48;;;;;;;5.67;100.00;62581.53;5015432;28;20290;-72
2023/12/07 08:07:18;;;;;;;17.27;11.40;;;;;;;5.22;100.00;62535.69;5023379;28;20223;-73
2023/12/07 08:09:45;;;;;;;21.75;13.18;;;;;;;5.15;100.00;62525.97;5023306;28;20242;-73
2023/12/07 08:12:13;;;;;;;19.50;12.93;;;;;;;4.93;100.00;62503.31;5021990;28;20289;-73
2023/12/07 08:14:43;;;;;;;22.02;13.55;;;;;;;4.63;100.00;62472.94;5023311;28;20361;-73
2023/12/07 08:17:10;;;;;;;25.33;14.93;;;;;;;4.69;100.00;62483.66;5015327;28;20547;-73
2023/12/07 08:19:37;;;;;;;20.92;13.38;;;;;;;4.55;100.00;62461.69;5023316;28;20413;-73
2023/12/07 08:22:05;;;;;;;24.15;13.18;;;;;;;4.58;100.00;62469.81;5017417;28;20450;-73
2023/12/07 08:24:32;;;;;;;20.35;13.35;;;;;;;4.60;100.00;62472.38;5024141;28;20559;-73
2023/12/07 08:26:59;;;;;;;17.98;11.75;;;;;;;4.58;100.00;62467.81;5021511;28;20404;-74
2023/12/07 08:29:28;;;;;;;15.70;11.35;;;;;;;4.57;100.00;62471.31;5022868;28;20202;-74
2023/12/07 08:31:55;;;;;;;13.18;10.85;;;;;;;4.65;100.00;62477.53;5022420;28;20215;-72
2023/12/07 08:34:21;;;;;;;20.77;12.15;;;;;;;4.63;100.00;62470.44;5024289;28;20213;-72
2023/12/07 08:36:48;;;;;;;19.08;12.35;;;;;;;4.66;100.00;62476.03;5023798;28;20230;-72
2023/12/07 08:39:15;;;;;;;14.02;11.48;;;;;;;4.67;100.00;62481.59;5019852;28;20190;-73
2023/12/07 08:41:42;;;;;;;16.50;11.80;;;;;;;4.66;100.00;62478.03;5020616;28;20218;-73
2023/12/07 08:44:09;;;;;;;15.60;10.10;;;;;;;4.69;100.00;62478.63;5014143;28;20342;-73
2023/12/07 08:46:38;;;;;;;11.85;8.88;;;;;;;4.63;100.00;62475.47;5025023;28;20202;-73
2023/12/07 08:49:06;;;;;;;13.73;9.48;;;;;;;4.65;100.00;62477.00;5019713;28;20231;-73
2023/12/07 08:51:33;;;;;;;10.60;8.68;;;;;;;4.65;100.00;62475.00;5022527;28;20206;-72
2023/12/07 08:53:59;;;;;;;12.20;8.45;;;;;;;4.49;100.00;62466.09;5024657;28;20210;-73
2023/12/07 08:56:26;;;;;;;12.70;8.00;;;;;;;4.45;100.00;62459.44;5025411;28;20203;-74
2023/12/07 08:58:53;;;;;;;8.73;7.32;;;;;;;4.49;100.00;62463.06;5013151;28;20448;-74
2023/12/07 09:01:20;;;;;;;9.70;8.20;;;;;;;4.47;100.00;62456.47;5021960;28;20509;-73
2023/12/07 09:03:49;;;;;;;6.88;6.22;;;;;;;4.39;100.00;62448.25;5026578;28;20253;-74
2023/12/07 09:06:16;;;;;;;10.02;7.15;;;;;;;4.35;100.00;62446.66;5016498;28;20203;-74
2023/12/07 09:08:43;;;;;;;7.55;6.45;;;;;;;4.35;100.00;62446.66;5022239;28;20237;-73
2023/12/07 09:11:10;;;;;;;7.97;6.45;;;;;;;4.39;100.00;62445.72;5024495;28;20214;-72
2023/12/07 09:13:38;;;;;;;7.38;6.65;;;;;;;4.38;100.00;62447.19;5024228;28;20229;-73
2023/12/07 09:16:06;;;;;;;7.07;6.47;;;;;;;4.38;100.00;62447.19;5010346;28;20207;-72
2023/12/07 09:18:35;;;;;;;5.47;4.97;;;;;;;4.41;100.00;62450.31;5013437;28;20260;-74
2023/12/07 09:21:04;;;;;;;5.15;4.65;;;;;;;4.40;100.00;62454.31;5021389;28;20594;-73
2023/12/07 09:23:32;;;;;;;7.25;5.47;;;;;;;4.37;100.00;62451.22;5015710;28;20487;-73
2023/12/07 09:25:58;;;;;;;5.35;4.85;;;;;;;4.09;100.00;62416.88;5024023;28;20198;-73
2023/12/07 09:28:25;;;;;;;4.43;4.03;;;;;;;4.14;100.00;62425.03;5021041;28;20382;-74
2023/12/07 09:30:52;;;;;;;4.97;4.57;;;;;;;4.26;100.00;62436.88;5029353;28;20460;-73
2023/12/07 09:33:19;;;;;;;4.75;4.35;;;;;;;4.23;100.00;62433.78;5023918;28;20516;-74
2023/12/07 09:35:45;;;;;;;3.42;3.13;;;;;;;4.21;100.00;62434.75;5013744;28;20610;-73
2023/12/07 09:38:14;;;;;;;3.50;3.20;;;;;;;4.18;100.00;62421.06;5024938;28;20249;-74
2023/12/07 09:40:41;;;;;;;3.60;3.30;;;;;;;4.09;100.00;62419.88;5020905;28;20223;-73
2023/12/07 09:43:08;;;;;;;3.05;2.85;;;;;;;4.05;100.00;62415.78;5015237;28;20223;-73
2023/12/07 09:45:35;;;;;;;2.70;2.50;;;;;;;3.87;100.00;62394.75;5008325;28;20230;-72
2023/12/07 09:48:03;;;;;;;2.25;2.15;;;;;;;3.71;100.00;62383.31;5010624;28;20226;-72
2023/12/07 09:50:30;;;;;;;2.42;2.33;;;;;;;3.84;100.00;62391.66;5022054;28;20237;-74
2023/12/07 09:52:58;;;;;;;2.30;2.20;;;;;;;3.77;100.00;62386.97;5021408;28;20419;-73
2023/12/07 09:55:26;;;;;;;2.78;2.58;;;;;;;3.70;100.00;62379.25;5024449;28;20210;-73
2023/12/07 09:57:56;;;;;;;2.80;2.55;;;;;;;3.65;100.00;62376.63;5020827;28;20437;-75
2023/12/07 10:00:23;;;;;;;2.55;2.40;;;;;;;3.64;100.00;62373.09;5017321;28;20270;-73
2023/12/07 10:02:51;;;;;;;2.35;2.22;;;;;;;3.66;100.00;62378.19;5022928;28;20548;-74
2023/12/07 10:05:19;;;;;;;1.77;1.70;;;;;;;3.60;100.00;62366.47;5021273;28;20239;-74
2023/12/07 10:07:47;;;;;;;1.67;1.63;;;;;;;3.59;100.00;62370.47;5023415;28;20230;-73
2023/12/07 10:10:14;;;;;;;2.83;2.63;;;;;;;3.50;100.00;62359.72;5021289;28;20226;-75
2023/12/07 10:12:48;;;;;;;2.10;2.00;;;;;;;3.50;100.00;62357.19;5023800;28;20254;-74
2023/12/07 10:15:17;;;;;;;1.30;1.30;;;;;;;3.47;100.00;62351.59;5017558;28;20402;-74
2023/12/07 10:17:48;;;;;;;1.95;1.85;;;;;;;3.43;100.00;62352.03;5024577;28;20541;-74
2023/12/07 10:20:17;;;;;;;1.52;1.42;;;;;;;3.44;100.00;62348.53;5021354;28;20214;-74
2023/12/07 10:22:45;;;;;;;1.30;1.30;;;;;;;3.22;100.00;62327.91;5021308;28;20294;-73
2023/12/07 10:25:12;;;;;;;0.75;0.75;;;;;;;3.09;100.00;62317.56;5024644;28;20233;-72
2023/12/07 10:27:42;;;;;;;1.38;1.38;;;;;;;2.91;100.00;62296.03;5021856;28;20226;-74
2023/12/07 10:30:14;;;;;;;1.83;1.70;;;;;;;2.98;100.00;62306.28;5012689;28;20512;-72
2023/12/07 10:32:41;;;;;;;1.75;1.65;;;;;;;2.92;100.00;62302.63;5012517;28;20246;-74
2023/12/07 10:35:10;;;;;;;1.15;1.15;;;;;;;2.79;100.00;62278.69;5029522;28;20207;-72
2023/12/07 10:37:37;;;;;;;1.40;1.35;;;;;;;2.88;100.00;62290.47;5021273;28;20531;-75
2023/12/07 10:40:07;;;;;;;1.40;1.30;;;;;;;2.95;100.00;62297.66;5013897;28;20199;-75
2023/12/07 10:42:36;;;;;;;1.52;1.52;;;;;;;2.84;100.00;62286.34;5010096;28;20231;-74
2023/12/07 10:45:07;;;;;;;2.22;2.05;;;;;;;2.84;100.00;62293.88;5023280;28;20562;-74
2023/12/07 10:47:38;;;;;;;1.95;1.85;;;;;;;2.92;100.00;62295.06;5019378;28;20223;-74
2023/12/07 10:50:10;;;;;;;2.03;1.92;;;;;;;2.94;100.00;62299.13;5018573;28;20210;-74
2023/12/07 10:52:40;;;;;;;2.22;2.10;;;;;;;2.90;100.00;62298.03;5024993;28;20428;-72
2023/12/07 10:55:14;;;;;;;2.08;1.98;;;;;;;2.97;100.00;62307.25;5027538;28;20218;-73
2023/12/07 10:57:41;;;;;;;1.98;1.88;;;;;;;2.96;100.00;62301.19;5022197;28;20514;-74
2023/12/07 11:00:09;;;;;;;1.77;1.67;;;;;;;2.91;100.00;62296.03;5020330;28;20220;-75
2023/12/07 11:02:39;;;;;;;2.05;1.95;;;;;;;2.87;100.00;62297.47;5025382;28;20219;-74
2023/12/07 11:05:07;;;;;;;1.92;1.83;;;;;;;2.93;100.00;62298.09;5026947;28;20257;-74
2023/12/07 11:07:43;;;;;;;1.67;1.67;;;;;;;2.96;100.00;62303.69;5025868;28;20265;-74
2023/12/07 11:10:17;;;;;;;0.50;0.50;;;;;;;2.73;100.00;62278.06;5028030;28;20198;-74
2023/12/07 11:12:52;;;;;;;0.85;0.85;;;;;;;2.76;100.00;62286.16;5024427;28;20223;-74
2023/12/07 11:15:19;;;;;;;0.90;0.90;;;;;;;2.67;100.00;62273.91;5024044;28;20443;-73
2023/12/07 11:17:53;;;;;;;0.80;0.80;;;;;;;2.67;100.00;62271.91;5022895;28;20223;-74
2023/12/07 11:20:22;;;;;;;0.90;0.90;;;;;;;2.67;100.00;62273.91;5022704;28;20245;-73
2023/12/07 11:22:49;;;;;;;0.80;0.80;;;;;;;2.54;100.00;62258.03;5024864;28;20495;-74